Terminal Aerodrome Forecast
Issued by NWS

Home | Current Version | Previous Version | Text Only | Print | Product List | Glossary Off
Versions: 1 2 3 4 5 6 7 8 9 10 11 12 13 14 15 16 17 18 19 20

000
FTUS43 KICT 041724
TAFCNU
TAF
KCNU 041724Z 0418/0518 02015G21KT 5SM -SN SCT025 OVC050
      TEMPO 0418/0420 2SM -SN SCT015 OVC025
     FM042100 02015G21KT P6SM SCT030 OVC080
     FM050000 01008KT P6SM BKN100=

USA.gov is the U.S. government's official web portal to all federal, state and local government web resources and services.